Livingston Municipal (8A3)

 

Airport Diagram
No Airport Diagram Available
Current Weather/Forecast (LIFR Conditions)
METAR K8A3 211510Z AUTO 24005KT 2 1/2SM BR OVC002 04/03 A2996 RMK A01
TAF

Airport Information

All Charts
General
Chart Name View
TAKEOFF MINIMUMS
TAKEOFF MINIMUMS

Approaches
Chart Name Download
RNAV (GPS) RWY 03
RNAV (GPS) RWY 21
VOR/DME RWY 21
RNAV (GPS) RWY 03
RNAV (GPS) RWY 21
VOR/DME RWY 21


Airport Statistics
Departures Arrivals Local
All Collected Stats since June 2016: 4 3 0
2021 Stats: 0 0 0
January Stats: 0 0 0

Inbound Traffic (Arrivals) - 0

No inbound traffic.


Outbound Traffic (Departures) - 0

No outbound traffic.


Local Traffic (Pattern) - 0

No local traffic.